Bavaria, Kansas
Current Conditions -  °F | °C
As of 6:53 PM on Sunday 23 Nov 2014 (Local Time) from KSLN Reporting Station
Clear Clear  
Wind Chill: 36°   Ceiling: Unl
Heat Index: 42°   Visibility: 10mi
Dew Point: 36°   Wind: 10mph
Humidity: 79%   Direction: 320°NW
Pressure: 29.63"   Gusts: NA
Location:  38.8424°N, 97.6193°W
Report Text: KSLN 240053Z 32009KT 10SM CLR 06/02 A2963 RMK AO2 SLP035 T00560022
Loading
Personal Weather Stations






























Interactive Weather Map New forecast layout! Learn more

10-Day Weather Forecast

Advertisements
Track Severe Weather on mobile